Concepcion, Bolivia
Current Conditions -  °F | °C
As of 1:00 PM on Wednesday 26 Nov 2014 (Local Time) from SLVR Reporting Station
Overcast Overcast  
Wind Chill: 75°   Ceiling: 2000
Heat Index: 75°   Visibility: 6mi
Dew Point: 73°   Wind: 3mph
Humidity: 94%   Direction: NA
Pressure: 29.88"   Gusts: NA
Location:  16.25°S, 62.1°W
Report Text: SLVR 261700Z VRB03KT 9999 BKN020 FEW030CB OVC070 24/23 Q1012
Loading
Personal Weather Stations






























Interactive Weather Map New forecast layout! Learn more

10-Day Weather Forecast

Advertisements
Track Severe Weather on mobile